Sint-Katelijne-Waver, Belgium
Current Conditions -  °F | °C
As of 6:20 AM on Sunday 23 Nov 2014 (Local Time) from EBAW Reporting Station
Clear Clear  
Wind Chill: 45°   Ceiling: Unl
Heat Index: 45°   Visibility: 4mi
Dew Point: 43°   Wind: 3mph
Humidity: 93%   Direction: 120°ESE
Pressure: 30"   Gusts: NA
Location:  51.07°N, 4.53°E
Report Text: EBAW 230520Z 12003KT 6000 NSC 07/06 Q1016 BECMG 4000 BR
Loading
Personal Weather Stations






























Interactive Weather Map New forecast layout! Learn more

10-Day Weather Forecast

Advertisements
Track Severe Weather on mobile